createdAt,value
2019-06-20T00:02:26.370Z,20.00
2019-06-20T00:04:53.274Z,20.00
2019-06-20T00:07:20.082Z,19.90
2019-06-20T00:09:46.644Z,20.00
2019-06-20T00:12:13.348Z,20.10
2019-06-20T00:14:41.511Z,20.10
2019-06-20T00:17:08.175Z,20.00
2019-06-20T00:19:35.923Z,20.00
2019-06-20T00:22:02.844Z,20.00
2019-06-20T00:24:29.334Z,19.90
2019-06-20T00:26:55.985Z,19.90
2019-06-20T00:29:22.708Z,19.90
2019-06-20T00:31:49.318Z,19.90
2019-06-20T00:34:17.840Z,19.90
2019-06-20T00:36:44.281Z,19.90
2019-06-20T00:39:10.871Z,19.80
2019-06-20T00:41:37.671Z,19.90
2019-06-20T00:44:04.543Z,19.80
2019-06-20T00:46:31.313Z,19.80
2019-06-20T00:48:58.378Z,19.80
2019-06-20T00:51:25.078Z,19.80
2019-06-20T00:53:51.853Z,19.80
2019-06-20T00:56:18.450Z,19.70
2019-06-20T00:58:45.544Z,19.60
2019-06-20T01:01:12.456Z,19.60
2019-06-20T01:03:39.036Z,19.60
2019-06-20T01:06:05.783Z,19.50
2019-06-20T01:08:32.488Z,19.50
2019-06-20T01:10:59.095Z,19.60
2019-06-20T01:13:33.603Z,19.60
2019-06-20T01:15:55.643Z,19.60
2019-06-20T01:18:22.259Z,19.70
2019-06-20T01:20:49.279Z,19.80
2019-06-20T01:23:16.206Z,19.70
2019-06-20T01:25:44.669Z,19.70
2019-06-20T01:28:11.303Z,19.70
2019-06-20T01:30:38.136Z,19.70
2019-06-20T01:33:05.817Z,19.30
2019-06-20T01:35:32.569Z,19.40
2019-06-20T01:37:58.878Z,19.30
2019-06-20T01:40:25.549Z,19.40
2019-06-20T01:42:52.507Z,19.30
2019-06-20T01:45:19.542Z,19.40
2019-06-20T01:47:46.695Z,19.30
2019-06-20T01:50:13.579Z,19.20
2019-06-20T01:52:40.253Z,19.10
2019-06-20T01:55:07.278Z,19.10
2019-06-20T01:57:34.196Z,19.20
2019-06-20T02:00:00.994Z,19.20
2019-06-20T02:02:27.668Z,19.00
2019-06-20T02:04:54.216Z,19.10
2019-06-20T02:07:20.778Z,19.20
2019-06-20T02:09:49.478Z,19.20
2019-06-20T02:12:16.075Z,19.10
2019-06-20T02:14:42.569Z,19.20
2019-06-20T02:17:09.383Z,19.30
2019-06-20T02:19:35.993Z,19.20
2019-06-20T02:22:03.372Z,19.20
2019-06-20T02:24:30.349Z,19.10
2019-06-20T02:26:57.041Z,19.20
2019-06-20T02:29:23.672Z,19.30
2019-06-20T02:31:50.465Z,19.10
2019-06-20T02:34:17.187Z,18.80
2019-06-20T02:36:44.077Z,19.00
2019-06-20T02:39:10.779Z,18.80
2019-06-20T02:41:37.577Z,19.00
2019-06-20T02:44:04.305Z,19.10
2019-06-20T02:46:31.089Z,19.20
2019-06-20T02:48:57.975Z,19.10
2019-06-20T02:51:24.770Z,18.90
2019-06-20T02:53:52.874Z,18.70
2019-06-20T02:56:20.048Z,18.70
2019-06-20T02:58:46.576Z,18.80
2019-06-20T03:01:13.516Z,18.80
2019-06-20T03:03:40.039Z,18.70
2019-06-20T03:06:06.804Z,18.70
2019-06-20T03:08:33.509Z,18.60
2019-06-20T03:11:00.257Z,18.60
2019-06-20T03:13:27.102Z,18.70
2019-06-20T03:15:53.844Z,18.80
2019-06-20T03:18:20.433Z,18.70
2019-06-20T03:20:47.704Z,18.70
2019-06-20T03:23:14.311Z,18.80
2019-06-20T03:25:40.950Z,18.80
2019-06-20T03:28:07.776Z,18.70
2019-06-20T03:30:34.615Z,18.80
2019-06-20T03:33:01.314Z,18.60
2019-06-20T03:35:27.925Z,18.30
2019-06-20T03:37:54.654Z,18.30
2019-06-20T03:40:21.391Z,18.50
2019-06-20T03:42:49.418Z,18.50
2019-06-20T03:45:16.205Z,18.50
2019-06-20T03:47:44.025Z,18.50
2019-06-20T03:50:12.499Z,18.50
2019-06-20T03:52:39.116Z,18.40
2019-06-20T03:55:05.751Z,18.40
2019-06-20T03:57:32.568Z,18.40
2019-06-20T03:59:59.539Z,18.50
2019-06-20T04:02:26.044Z,18.80
2019-06-20T04:04:52.538Z,18.70
2019-06-20T04:07:19.105Z,18.70
2019-06-20T04:09:45.564Z,18.60
2019-06-20T04:12:12.007Z,18.70
2019-06-20T04:14:40.366Z,18.70
2019-06-20T04:17:07.293Z,18.60
2019-06-20T04:19:35.836Z,18.60
2019-06-20T04:22:02.447Z,18.60
2019-06-20T04:24:28.921Z,18.30
2019-06-20T04:26:55.642Z,18.40
2019-06-20T04:29:22.538Z,18.50
2019-06-20T04:31:49.294Z,18.60
2019-06-20T04:34:15.836Z,18.60
2019-06-20T04:36:42.537Z,18.60
2019-06-20T04:39:18.721Z,18.40
2019-06-20T04:41:37.774Z,18.30
2019-06-20T04:44:06.659Z,18.30
2019-06-20T04:46:35.091Z,18.30
2019-06-20T04:49:01.752Z,18.20
2019-06-20T04:51:28.489Z,18.30
2019-06-20T04:53:55.074Z,18.30
2019-06-20T04:56:23.550Z,18.30
2019-06-20T04:58:50.064Z,18.30
2019-06-20T05:01:16.735Z,18.30
2019-06-20T05:03:44.054Z,18.30
2019-06-20T05:06:10.522Z,18.30
2019-06-20T05:08:37.440Z,18.30
2019-06-20T05:11:04.373Z,18.30
2019-06-20T05:13:31.058Z,18.40
2019-06-20T05:15:57.843Z,18.30
2019-06-20T05:18:24.603Z,18.40
2019-06-20T05:20:51.698Z,18.50
2019-06-20T05:23:18.378Z,18.40
2019-06-20T05:25:45.010Z,18.50
2019-06-20T05:28:11.961Z,18.60
2019-06-20T05:30:39.235Z,18.30
2019-06-20T05:33:05.838Z,18.40
2019-06-20T05:35:32.723Z,18.40
2019-06-20T05:37:59.446Z,18.30
2019-06-20T05:40:26.293Z,18.40
2019-06-20T05:42:52.914Z,18.50
2019-06-20T05:45:19.705Z,18.50
2019-06-20T05:47:46.522Z,18.60
2019-06-20T05:50:13.726Z,19.00
2019-06-20T05:52:40.280Z,19.00
2019-06-20T05:55:07.454Z,19.20
2019-06-20T05:57:35.650Z,18.90
2019-06-20T06:00:08.362Z,18.90
2019-06-20T06:02:36.928Z,19.00
2019-06-20T06:05:05.149Z,19.00
2019-06-20T06:07:33.801Z,19.00
2019-06-20T06:10:04.406Z,18.80
2019-06-20T06:12:29.118Z,18.90
2019-06-20T06:14:55.755Z,19.00
2019-06-20T06:17:22.296Z,18.90
2019-06-20T06:19:48.948Z,19.10
2019-06-20T06:22:15.472Z,19.20
2019-06-20T06:24:42.279Z,19.10
2019-06-20T06:27:08.919Z,18.90
2019-06-20T06:29:35.643Z,19.40
2019-06-20T06:32:02.371Z,19.00
2019-06-20T06:34:29.303Z,19.10
2019-06-20T06:36:57.956Z,19.30
2019-06-20T06:39:24.558Z,19.20
2019-06-20T06:41:51.069Z,19.20
2019-06-20T06:44:17.694Z,19.00
2019-06-20T06:46:52.807Z,19.00
2019-06-20T06:49:12.666Z,19.10
2019-06-20T06:51:39.287Z,19.10
2019-06-20T06:54:06.195Z,19.10
2019-06-20T06:56:32.795Z,19.20
2019-06-20T06:58:59.614Z,19.50
2019-06-20T07:01:26.440Z,19.40
2019-06-20T07:03:54.239Z,19.00
2019-06-20T07:06:20.918Z,19.10
2019-06-20T07:08:47.478Z,19.10
2019-06-20T07:11:15.013Z,19.00
2019-06-20T07:13:41.937Z,18.90
2019-06-20T07:16:08.715Z,18.90
2019-06-20T07:18:35.623Z,18.90
2019-06-20T07:21:02.450Z,18.80
2019-06-20T07:23:29.260Z,18.70
2019-06-20T07:25:56.307Z,18.70
2019-06-20T07:28:22.993Z,18.50
2019-06-20T07:30:49.735Z,18.70
2019-06-20T07:33:16.464Z,18.80
2019-06-20T07:35:44.506Z,18.70
2019-06-20T07:38:11.228Z,18.70
2019-06-20T07:40:38.053Z,18.90
2019-06-20T07:43:05.036Z,19.00
2019-06-20T07:45:34.661Z,19.20
2019-06-20T07:48:03.679Z,19.40
2019-06-20T07:50:30.492Z,19.60
2019-06-20T07:53:02.625Z,19.70
2019-06-20T07:55:28.913Z,20.00
2019-06-20T07:57:55.683Z,20.10
2019-06-20T08:00:22.962Z,20.10
2019-06-20T08:02:49.391Z,20.10
2019-06-20T08:05:16.914Z,20.10
2019-06-20T08:07:43.566Z,20.10
2019-06-20T08:10:12.962Z,20.00
2019-06-20T08:12:39.837Z,19.90
2019-06-20T08:15:15.070Z,19.90
2019-06-20T08:17:36.921Z,20.00
2019-06-20T08:20:06.220Z,19.90
2019-06-20T08:22:32.892Z,19.80
2019-06-20T08:25:00.953Z,19.90
2019-06-20T08:27:29.805Z,19.70
2019-06-20T08:29:57.474Z,19.80
2019-06-20T08:32:24.510Z,19.90
2019-06-20T08:34:51.097Z,19.80
2019-06-20T08:37:17.813Z,19.60
2019-06-20T08:39:44.393Z,19.60
2019-06-20T08:42:11.155Z,19.60
2019-06-20T08:44:37.683Z,19.70
2019-06-20T08:47:05.964Z,19.90
2019-06-20T08:49:32.733Z,19.80
2019-06-20T08:51:59.475Z,19.70
2019-06-20T08:54:25.927Z,20.00
2019-06-20T08:56:52.581Z,20.30
2019-06-20T08:59:24.309Z,20.50
2019-06-20T09:01:49.984Z,20.60
2019-06-20T09:04:16.731Z,20.60
2019-06-20T09:06:43.214Z,20.70
2019-06-20T09:09:09.923Z,21.10
2019-06-20T09:11:36.739Z,21.60
2019-06-20T09:14:04.013Z,21.80
2019-06-20T09:16:30.740Z,22.10
2019-06-20T09:18:58.337Z,22.80
2019-06-20T09:21:25.022Z,23.40
2019-06-20T09:23:52.584Z,24.00
2019-06-20T09:26:19.736Z,24.20
2019-06-20T09:28:46.207Z,24.50
2019-06-20T09:31:12.954Z,24.60
2019-06-20T09:33:39.473Z,24.70
2019-06-20T09:36:06.065Z,24.30
2019-06-20T09:38:32.590Z,24.30
2019-06-20T09:40:59.275Z,24.00
2019-06-20T09:43:27.768Z,24.20
2019-06-20T09:45:54.512Z,24.10
2019-06-20T09:48:22.172Z,24.10
2019-06-20T09:50:49.995Z,24.10
2019-06-20T09:53:17.176Z,23.80
2019-06-20T09:55:43.905Z,23.80
2019-06-20T09:58:10.602Z,23.90
2019-06-20T10:00:37.665Z,23.70
2019-06-20T10:03:04.934Z,23.50
2019-06-20T10:05:31.786Z,23.40
2019-06-20T10:07:58.269Z,23.40
2019-06-20T10:10:28.565Z,23.40
2019-06-20T10:12:55.941Z,23.60
2019-06-20T10:15:25.555Z,23.60
2019-06-20T10:17:52.113Z,23.80
2019-06-20T10:20:20.049Z,24.90
2019-06-20T10:22:47.330Z,25.80
2019-06-20T10:25:16.120Z,26.30
2019-06-20T10:27:42.849Z,26.20
2019-06-20T10:30:14.621Z,27.00
2019-06-20T10:32:40.869Z,27.40
2019-06-20T10:35:08.164Z,27.20
2019-06-20T10:37:34.592Z,27.00
2019-06-20T10:40:07.262Z,26.70
2019-06-20T10:42:34.094Z,26.90
2019-06-20T10:45:00.822Z,26.80
2019-06-20T10:47:33.664Z,26.90
2019-06-20T10:49:56.885Z,27.20
2019-06-20T10:52:23.500Z,27.90
2019-06-20T10:54:51.411Z,28.40
2019-06-20T10:57:19.354Z,28.30
2019-06-20T10:59:46.533Z,28.20
2019-06-20T11:02:13.259Z,27.90
2019-06-20T11:04:42.025Z,27.50
2019-06-20T11:07:10.407Z,27.00
2019-06-20T11:09:36.943Z,27.20
2019-06-20T11:12:03.586Z,27.00
2019-06-20T11:14:30.072Z,26.30
2019-06-20T11:16:57.683Z,26.30
2019-06-20T11:19:24.311Z,26.40
2019-06-20T11:21:51.154Z,26.30
2019-06-20T11:24:17.601Z,26.20
2019-06-20T11:26:45.886Z,26.00
2019-06-20T11:29:12.587Z,25.70
2019-06-20T11:31:42.649Z,25.70
2019-06-20T11:34:07.640Z,25.50
2019-06-20T11:36:34.174Z,25.60
2019-06-20T11:39:01.168Z,25.60
2019-06-20T11:41:28.776Z,25.50
2019-06-20T11:43:56.899Z,25.40
2019-06-20T11:46:23.987Z,25.40
2019-06-20T11:48:52.575Z,25.30
2019-06-20T11:51:19.412Z,25.20
2019-06-20T11:53:46.152Z,25.10
2019-06-20T11:56:13.087Z,25.20
2019-06-20T11:58:39.868Z,25.00
2019-06-20T12:01:06.614Z,25.00
2019-06-20T12:03:33.342Z,25.00
2019-06-20T12:05:59.864Z,24.90
2019-06-20T12:08:26.651Z,24.70
2019-06-20T12:10:53.303Z,24.60
2019-06-20T12:13:19.868Z,24.50
2019-06-20T12:15:46.724Z,24.70
2019-06-20T12:18:13.312Z,24.80
2019-06-20T12:20:41.137Z,24.90
2019-06-20T12:23:08.031Z,24.90
2019-06-20T12:25:34.734Z,24.90
2019-06-20T12:28:01.497Z,25.20
2019-06-20T12:30:28.626Z,25.10
2019-06-20T12:32:55.275Z,25.30
2019-06-20T12:35:21.928Z,25.20
2019-06-20T12:37:49.823Z,25.20
2019-06-20T12:40:18.721Z,25.30
2019-06-20T12:42:46.642Z,25.40
2019-06-20T12:45:14.205Z,25.40
2019-06-20T12:47:41.921Z,25.40
2019-06-20T12:50:09.801Z,25.40
2019-06-20T12:52:37.647Z,25.40
2019-06-20T12:55:05.822Z,25.30
2019-06-20T12:57:32.479Z,25.30
2019-06-20T12:59:59.097Z,25.30
2019-06-20T13:02:26.058Z,25.30
2019-06-20T13:04:53.063Z,24.90
2019-06-20T13:07:19.658Z,25.00
2019-06-20T13:09:46.361Z,24.80
2019-06-20T13:12:13.003Z,24.70
2019-06-20T13:14:40.885Z,24.80
2019-06-20T13:17:07.622Z,24.80
2019-06-20T13:19:34.049Z,24.90
2019-06-20T13:22:00.701Z,25.00
2019-06-20T13:24:27.332Z,25.00
2019-06-20T13:26:53.914Z,24.90
2019-06-20T13:29:20.475Z,25.00
2019-06-20T13:32:00.551Z,25.10
2019-06-20T13:34:15.305Z,25.10
2019-06-20T13:36:42.900Z,25.00
2019-06-20T13:39:09.689Z,25.00
2019-06-20T13:41:36.349Z,25.00
2019-06-20T13:44:03.740Z,24.90
2019-06-20T13:46:30.315Z,24.80
2019-06-20T13:48:57.011Z,24.80
2019-06-20T13:51:23.697Z,24.80
2019-06-20T13:53:50.668Z,24.70
2019-06-20T13:56:17.528Z,24.60
2019-06-20T13:58:44.822Z,24.30
2019-06-20T14:01:11.397Z,24.10
2019-06-20T14:03:37.809Z,24.10
2019-06-20T14:06:04.709Z,24.00
2019-06-20T14:08:31.797Z,23.90
2019-06-20T14:10:58.179Z,23.90
2019-06-20T14:13:24.783Z,24.00
2019-06-20T14:15:51.359Z,23.80
2019-06-20T14:18:18.261Z,23.90
2019-06-20T14:20:46.802Z,24.00
2019-06-20T14:23:13.569Z,23.90
2019-06-20T14:25:40.160Z,24.00
2019-06-20T14:28:06.897Z,24.10
2019-06-20T14:30:33.804Z,24.00
2019-06-20T14:33:00.547Z,23.90
2019-06-20T14:35:27.076Z,23.90
2019-06-20T14:37:55.372Z,23.80
2019-06-20T14:40:22.197Z,23.80
2019-06-20T14:42:50.277Z,23.70
2019-06-20T14:45:18.568Z,23.60
2019-06-20T14:47:45.525Z,23.70
2019-06-20T14:50:12.938Z,23.70
2019-06-20T14:52:39.816Z,23.60
2019-06-20T14:55:06.955Z,23.50
2019-06-20T14:57:33.599Z,23.60
2019-06-20T15:00:00.969Z,23.50
2019-06-20T15:02:37.987Z,23.60
2019-06-20T15:04:57.092Z,23.60
2019-06-20T15:07:23.497Z,23.60
2019-06-20T15:09:51.330Z,23.70
2019-06-20T15:12:18.240Z,23.80
2019-06-20T15:14:46.229Z,23.70
2019-06-20T15:17:13.293Z,23.50
2019-06-20T15:19:39.738Z,23.50
2019-06-20T15:22:06.322Z,23.50
2019-06-20T15:24:32.978Z,23.50
2019-06-20T15:27:00.737Z,23.50
2019-06-20T15:29:27.226Z,23.50
2019-06-20T15:31:54.832Z,23.60
2019-06-20T15:34:21.535Z,23.60
2019-06-20T15:36:48.595Z,23.60
2019-06-20T15:39:18.158Z,23.60
2019-06-20T15:41:44.666Z,23.70
2019-06-20T15:44:11.142Z,23.60
2019-06-20T15:46:37.654Z,23.60
2019-06-20T15:49:15.710Z,23.60
2019-06-20T15:51:32.976Z,23.50
2019-06-20T15:53:59.995Z,23.50
2019-06-20T15:56:27.203Z,23.60
2019-06-20T15:58:56.963Z,23.60
2019-06-20T16:01:23.793Z,23.60
2019-06-20T16:04:01.866Z,23.60
2019-06-20T16:06:28.654Z,23.50
2019-06-20T16:08:55.365Z,23.50
2019-06-20T16:11:22.196Z,23.50
2019-06-20T16:13:50.211Z,23.50
2019-06-20T16:16:16.889Z,23.40
2019-06-20T16:18:43.380Z,23.40
2019-06-20T16:21:09.930Z,23.40
2019-06-20T16:23:36.560Z,23.40
2019-06-20T16:26:03.391Z,23.30
2019-06-20T16:28:29.989Z,23.30
2019-06-20T16:31:08.308Z,23.30
2019-06-20T16:33:25.784Z,23.30
2019-06-20T16:35:52.777Z,23.30
2019-06-20T16:38:19.336Z,23.40
2019-06-20T16:40:47.145Z,23.40
2019-06-20T16:43:13.944Z,23.40
2019-06-20T16:45:41.437Z,23.40
2019-06-20T16:48:08.453Z,23.40
2019-06-20T16:50:35.684Z,23.20
2019-06-20T16:53:02.354Z,23.30
2019-06-20T16:55:29.248Z,23.20
2019-06-20T16:57:55.806Z,23.10
2019-06-20T17:00:22.901Z,23.10
2019-06-20T17:02:49.522Z,23.10
2019-06-20T17:05:16.894Z,23.20
2019-06-20T17:07:44.222Z,23.10
2019-06-20T17:10:12.401Z,23.20
2019-06-20T17:12:39.032Z,23.20
2019-06-20T17:15:06.694Z,23.10
2019-06-20T17:17:33.323Z,23.30
2019-06-20T17:19:59.995Z,23.20
2019-06-20T17:22:26.808Z,23.20
2019-06-20T17:24:53.755Z,23.20
2019-06-20T17:27:20.243Z,23.20
2019-06-20T17:29:46.711Z,23.20
2019-06-20T17:32:13.275Z,23.20
2019-06-20T17:34:39.810Z,23.20
2019-06-20T17:37:06.459Z,23.20
2019-06-20T17:39:33.058Z,23.10
2019-06-20T17:41:59.711Z,23.10
2019-06-20T17:44:27.563Z,23.00
2019-06-20T17:46:55.128Z,23.10
2019-06-20T17:49:22.001Z,23.00
2019-06-20T17:51:48.798Z,23.10
2019-06-20T17:54:15.504Z,23.00
2019-06-20T17:56:42.058Z,23.00
2019-06-20T17:59:08.775Z,23.00
2019-06-20T18:01:36.134Z,22.90
2019-06-20T18:04:13.368Z,22.90
2019-06-20T18:06:31.467Z,22.90
2019-06-20T18:08:58.033Z,22.90
2019-06-20T18:11:24.611Z,22.90
2019-06-20T18:13:51.106Z,22.90
2019-06-20T18:16:24.955Z,22.90
2019-06-20T18:18:45.854Z,22.90
2019-06-20T18:21:12.574Z,22.90
2019-06-20T18:23:39.173Z,23.00
2019-06-20T18:26:05.767Z,23.00
2019-06-20T18:28:34.411Z,23.00
2019-06-20T18:31:00.997Z,22.90
2019-06-20T18:33:27.511Z,22.90
2019-06-20T18:35:54.240Z,22.90
2019-06-20T18:38:20.875Z,22.80
2019-06-20T18:40:47.342Z,22.70
2019-06-20T18:43:14.031Z,22.70
2019-06-20T18:45:41.007Z,22.80
2019-06-20T18:48:07.755Z,22.70
2019-06-20T18:50:34.983Z,22.70
2019-06-20T18:53:01.766Z,22.60
2019-06-20T18:55:29.321Z,22.50
2019-06-20T18:57:55.909Z,22.50
2019-06-20T19:00:34.104Z,22.40
2019-06-20T19:02:52.926Z,22.50
2019-06-20T19:05:19.502Z,22.40
2019-06-20T19:07:46.022Z,22.40
2019-06-20T19:10:16.497Z,22.40
2019-06-20T19:12:43.332Z,22.30
2019-06-20T19:15:10.540Z,22.30
2019-06-20T19:17:37.080Z,22.30
2019-06-20T19:20:06.856Z,22.30
2019-06-20T19:22:33.533Z,22.30
2019-06-20T19:25:03.689Z,22.20
2019-06-20T19:27:45.098Z,22.20
2019-06-20T19:29:58.077Z,22.20
2019-06-20T19:32:24.707Z,22.20
2019-06-20T19:35:01.417Z,22.10
2019-06-20T19:37:19.580Z,22.10
2019-06-20T19:39:46.190Z,22.10
2019-06-20T19:42:12.571Z,22.20
2019-06-20T19:44:39.279Z,22.10
2019-06-20T19:47:06.885Z,22.00
2019-06-20T19:49:33.549Z,21.90
2019-06-20T19:52:00.344Z,21.80
2019-06-20T19:54:27.270Z,21.70
2019-06-20T19:56:54.087Z,21.70
2019-06-20T19:59:20.825Z,21.60
2019-06-20T20:01:48.591Z,21.60
2019-06-20T20:04:15.205Z,21.60
2019-06-20T20:06:41.769Z,21.60
2019-06-20T20:09:08.757Z,21.60
2019-06-20T20:11:35.470Z,21.70
2019-06-20T20:14:01.892Z,21.70
2019-06-20T20:16:28.417Z,21.60
2019-06-20T20:18:54.738Z,21.60
2019-06-20T20:21:21.605Z,21.50
2019-06-20T20:23:49.544Z,21.70
2019-06-20T20:26:16.041Z,21.50
2019-06-20T20:28:42.950Z,21.50
2019-06-20T20:31:11.319Z,21.40
2019-06-20T20:33:37.796Z,21.40
2019-06-20T20:36:04.276Z,21.40
2019-06-20T20:38:33.765Z,21.40
2019-06-20T20:41:00.320Z,21.40
2019-06-20T20:43:26.853Z,21.30
2019-06-20T20:45:56.203Z,21.30
2019-06-20T20:48:24.162Z,21.20
2019-06-20T20:50:50.773Z,21.10
2019-06-20T20:53:20.380Z,21.10
2019-06-20T20:55:46.786Z,21.10
2019-06-20T20:58:14.291Z,21.20
2019-06-20T21:00:57.431Z,21.10
2019-06-20T21:03:23.913Z,21.00
2019-06-20T21:05:51.756Z,21.00
2019-06-20T21:08:18.595Z,21.00
2019-06-20T21:10:45.287Z,20.80
2019-06-20T21:13:11.931Z,20.80
2019-06-20T21:15:38.833Z,20.70
2019-06-20T21:18:05.599Z,20.70
2019-06-20T21:20:32.081Z,20.70
2019-06-20T21:22:58.656Z,20.50
2019-06-20T21:25:25.327Z,20.60
2019-06-20T21:27:51.932Z,20.70
2019-06-20T21:30:22.271Z,20.70
2019-06-20T21:32:49.136Z,20.70
2019-06-20T21:35:16.011Z,20.50
2019-06-20T21:37:42.767Z,20.60
2019-06-20T21:40:10.071Z,20.70
2019-06-20T21:42:36.795Z,20.60
2019-06-20T21:45:05.898Z,20.60
2019-06-20T21:47:32.950Z,20.60
2019-06-20T21:50:04.446Z,20.50
2019-06-20T21:52:31.151Z,20.50
2019-06-20T21:54:57.712Z,20.50
2019-06-20T21:57:24.238Z,20.50
2019-06-20T21:59:51.354Z,20.60
2019-06-20T22:02:18.193Z,20.50
2019-06-20T22:04:54.148Z,20.50
2019-06-20T22:07:13.556Z,20.50
2019-06-20T22:09:40.250Z,20.50
2019-06-20T22:12:07.112Z,20.60
2019-06-20T22:14:34.770Z,20.60
2019-06-20T22:17:01.825Z,20.60
2019-06-20T22:19:28.440Z,20.50
2019-06-20T22:21:55.192Z,20.40
2019-06-20T22:24:21.986Z,20.30
2019-06-20T22:26:50.788Z,20.20
2019-06-20T22:29:18.030Z,20.30
2019-06-20T22:31:44.608Z,20.50
2019-06-20T22:34:11.105Z,20.40
2019-06-20T22:36:40.518Z,20.30
2019-06-20T22:39:07.631Z,20.30
2019-06-20T22:41:34.085Z,20.20
2019-06-20T22:44:00.601Z,20.20
2019-06-20T22:46:27.175Z,20.20
2019-06-20T22:48:53.838Z,20.10
2019-06-20T22:51:20.324Z,19.90
2019-06-20T22:53:46.934Z,19.90
2019-06-20T22:56:13.555Z,19.90
2019-06-20T22:58:39.977Z,19.90
2019-06-20T23:01:06.633Z,19.90
2019-06-20T23:03:33.628Z,19.80
2019-06-20T23:06:00.300Z,19.70
2019-06-20T23:08:27.119Z,19.70
2019-06-20T23:10:53.966Z,19.40
2019-06-20T23:13:20.848Z,19.40
2019-06-20T23:15:47.870Z,19.30
2019-06-20T23:18:14.924Z,19.40
2019-06-20T23:20:41.798Z,19.30
2019-06-20T23:23:08.709Z,19.20
2019-06-20T23:25:37.291Z,19.20
2019-06-20T23:28:04.341Z,19.00
2019-06-20T23:30:31.559Z,19.00
2019-06-20T23:32:58.494Z,19.10
2019-06-20T23:35:24.972Z,19.10
2019-06-20T23:37:51.907Z,19.10
2019-06-20T23:40:18.867Z,19.20
2019-06-20T23:42:45.881Z,19.10
2019-06-20T23:45:14.180Z,19.10
2019-06-20T23:47:43.037Z,18.90
2019-06-20T23:50:17.815Z,18.80
2019-06-20T23:52:54.688Z,18.80
2019-06-20T23:55:22.140Z,18.30
2019-06-20T23:57:50.543Z,18.50
